Time;durP1;ratioP1;P1;durP2;ratioP2;P2;SDS_P1;SDS_P2;PMS_P1;PMS_P2;Temp;Humidity;BMP_temperature;BMP_pressure;BME280_temperature;BME280_humidity;BME280_pressure;Samples;Min_cycle;Max_cycle;Signal;HPM_P1;HPM_P2
2023/11/06 00:00:57;;;;;;;;;0.50;0.50;;;;;12.72;79.40;99694.50;5072908;28;45539;-63
2023/11/06 00:03:23;;;;;;;;;2.25;1.00;;;;;12.77;79.71;99692.44;5059019;27;46043;-63
2023/11/06 00:05:48;;;;;;;;;1.25;1.25;;;;;12.76;79.71;99701.44;5079607;27;45425;-63
2023/11/06 00:08:14;;;;;;;;;1.25;1.00;;;;;12.77;79.80;99694.25;5060294;28;45278;-63
2023/11/06 00:10:40;;;;;;;;;3.00;1.00;;;;;12.76;79.71;99700.56;5059411;28;45390;-63
2023/11/06 00:13:05;;;;;;;;;1.25;0.00;;;;;12.73;79.65;99701.59;5066702;28;46119;-63
2023/11/06 00:15:31;;;;;;;;;1.00;1.00;;;;;12.79;79.59;99711.09;5059775;28;45448;-63
2023/11/06 00:17:56;;;;;;;;;1.00;1.00;;;;;12.74;79.82;99702.47;5075166;28;45516;-63
2023/11/06 00:20:21;;;;;;;;;3.75;0.75;;;;;12.75;79.79;99706.88;5073629;27;45324;-63
2023/11/06 00:22:47;;;;;;;;;1.00;1.00;;;;;12.79;79.79;99716.44;5058688;28;57231;-63
2023/11/06 00:25:13;;;;;;;;;1.75;0.25;;;;;12.72;79.80;99697.19;5073850;28;45581;-63
2023/11/06 00:27:38;;;;;;;;;2.00;1.00;;;;;12.65;79.79;99695.84;5061461;27;45378;-63
2023/11/06 00:30:04;;;;;;;;;0.25;0.00;;;;;12.74;79.80;99706.00;5079189;27;45437;-63
2023/11/06 00:32:29;;;;;;;;;0.50;0.50;;;;;12.65;80.05;99694.97;5061152;28;46981;-63
2023/11/06 00:34:54;;;;;;;;;1.50;1.00;;;;;12.71;79.96;99708.00;5070570;27;73240;-63
2023/11/06 00:37:20;;;;;;;;;0.00;0.00;;;;;12.64;79.96;99695.91;5068880;28;45909;-63
2023/11/06 00:39:45;;;;;;;;;1.50;0.75;;;;;12.66;80.10;99708.25;5078737;27;45365;-63
2023/11/06 00:42:10;;;;;;;;;2.00;1.00;;;;;12.64;80.23;99709.31;5059140;28;45364;-63
2023/11/06 00:44:36;;;;;;;;;1.00;1.00;;;;;12.63;80.34;99713.81;5076319;27;69150;-63
2023/11/06 00:47:01;;;;;;;;;1.75;1.00;;;;;12.54;80.11;99700.94;5069153;28;66749;-63
2023/11/06 00:49:26;;;;;;;;;2.50;0.75;;;;;12.60;80.37;99705.94;5076756;27;49442;-63
2023/11/06 00:51:52;;;;;;;;;2.25;0.00;;;;;12.59;80.32;99704.19;5061805;28;59259;-63
2023/11/06 00:54:17;;;;;;;;;2.50;0.75;;;;;12.62;80.56;99714.75;5058712;28;45416;-63
2023/11/06 00:56:43;;;;;;;;;1.00;1.00;;;;;12.57;80.56;99706.13;5073075;27;62612;-63
2023/11/06 00:59:08;;;;;;;;;0.50;0.25;;;;;12.62;80.64;99714.75;5068322;27;45482;-63
2023/11/06 01:01:34;;;;;;;;;1.75;1.00;;;;;12.57;80.43;99703.44;5072672;27;45966;-63
2023/11/06 01:03:59;;;;;;;;;2.25;1.50;;;;;12.63;80.42;99726.31;5075514;28;67928;-63
2023/11/06 01:06:25;;;;;;;;;1.75;1.00;;;;;12.60;80.57;99717.50;5077432;27;45489;-63
2023/11/06 01:08:50;;;;;;;;;2.75;0.75;;;;;12.50;80.47;99700.25;5066990;28;45408;-63
2023/11/06 01:11:16;;;;;;;;;4.00;0.50;;;;;12.48;80.85;99711.97;5061148;27;46108;-63
2023/11/06 01:13:42;;;;;;;;;0.00;0.00;;;;;12.56;80.73;99712.41;5078236;27;45564;-63
2023/11/06 01:16:08;;;;;;;;;1.00;1.00;;;;;12.42;80.76;99697.13;5060129;27;45543;-63
2023/11/06 01:18:33;;;;;;;;;0.75;0.50;;;;;12.53;80.94;99721.50;5078782;27;45407;-63
2023/11/06 01:20:59;;;;;;;;;3.00;1.00;;;;;12.53;81.01;99723.28;5059573;27;45989;-63
2023/11/06 01:23:24;;;;;;;;;1.00;0.00;;;;;12.52;81.02;99718.91;5072303;27;45572;-63
2023/11/06 01:25:50;;;;;;;;;1.00;0.50;;;;;12.45;81.34;99715.72;5061273;27;45902;-63
2023/11/06 01:28:15;;;;;;;;;2.00;0.00;;;;;12.47;81.05;99713.81;5090953;27;45407;-63
2023/11/06 01:30:41;;;;;;;;;2.50;1.00;;;;;12.49;81.17;99735.13;5072491;27;46068;-63
2023/11/06 01:33:06;;;;;;;;;3.00;1.00;;;;;12.39;81.10;99718.72;5069560;27;60591;-63
2023/11/06 01:35:32;;;;;;;;;1.00;1.00;;;;;12.36;81.07;99718.88;5073073;27;45331;-63
2023/11/06 01:37:58;;;;;;;;;1.75;0.00;;;;;12.46;81.24;99741.50;5063867;28;45359;-63
2023/11/06 01:40:24;;;;;;;;;1.75;1.00;;;;;12.41;81.30;99732.88;5073018;27;45958;-63
2023/11/06 01:42:52;;;;;;;;;1.00;0.00;;;;;12.46;81.47;99746.00;5069454;28;45509;-63
2023/11/06 01:45:18;;;;;;;;;0.75;0.75;;;;;12.47;81.44;99742.38;5078450;27;45629;-63
2023/11/06 01:47:43;;;;;;;;;3.00;1.50;;;;;12.44;81.47;99747.91;5065639;27;45353;-63
2023/11/06 01:50:11;;;;;;;;;3.00;1.00;;;;;12.40;81.38;99741.88;5059975;27;45887;-63
2023/11/06 01:52:37;;;;;;;;;2.00;1.00;;;;;12.39;81.47;99740.97;5069219;28;45648;-63
2023/11/06 01:55:03;;;;;;;;;1.75;1.75;;;;;12.40;81.68;99745.41;5073704;27;45429;-63
2023/11/06 01:57:28;;;;;;;;;3.25;0.75;;;;;12.40;81.63;99745.41;5078270;27;45429;-63
2023/11/06 01:59:55;;;;;;;;;1.50;1.00;;;;;12.29;81.72;99728.22;5061928;27;45442;-63
2023/11/06 02:02:23;;;;;;;;;0.25;0.25;;;;;12.36;81.68;99748.31;5077932;27;45388;-63
2023/11/06 02:04:49;;;;;;;;;2.00;1.00;;;;;12.34;81.92;99743.06;5059362;27;45485;-63
2023/11/06 02:07:15;;;;;;;;;0.00;0.00;;;;;12.36;81.82;99765.25;5069085;27;45575;-63
2023/11/06 02:09:41;;;;;;;;;2.00;0.75;;;;;12.30;81.80;99754.03;5072028;27;46117;-63
2023/11/06 02:12:08;;;;;;;;;0.75;0.75;;;;;12.25;81.93;99745.41;5068026;27;45477;-63
2023/11/06 02:14:53;;;;;;;;;2.00;1.50;;;;;12.23;82.07;99748.16;5075770;27;45455;-63
2023/11/06 02:17:19;;;;;;;;;1.75;1.00;;;;;12.32;82.12;99758.34;5071232;28;45495;-63
2023/11/06 02:19:45;;;;;;;;;1.00;0.00;;;;;12.33;82.00;99767.22;5072986;27;47134;-63
2023/11/06 02:22:11;;;;;;;;;0.50;0.00;;;;;12.32;81.91;99757.47;5061127;28;45819;-63
2023/11/06 02:24:40;;;;;;;;;0.75;0.75;;;;;12.30;81.90;99746.00;5061694;28;45377;-63
2023/11/06 02:27:06;;;;;;;;;2.00;1.25;;;;;12.35;81.98;99760.00;5061422;28;45528;-63
2023/11/06 02:29:31;;;;;;;;;0.75;0.75;;;;;12.27;81.88;99747.03;5061393;28;45470;-63
2023/11/06 02:31:57;;;;;;;;;2.75;1.50;;;;;12.25;81.91;99737.38;5061507;28;45397;-63
2023/11/06 02:34:22;;;;;;;;;1.75;1.00;;;;;12.30;82.08;99756.72;5076612;28;58225;-63
2023/11/06 02:36:48;;;;;;;;;2.00;1.00;;;;;12.34;82.01;99764.47;5061451;28;45302;-63
2023/11/06 02:39:13;;;;;;;;;2.50;1.50;;;;;12.30;81.76;99762.91;5070503;28;45374;-63
2023/11/06 02:41:39;;;;;;;;;3.75;1.50;;;;;12.36;82.12;99773.28;5065576;27;45345;-63
2023/11/06 02:44:04;;;;;;;;;1.50;1.00;;;;;12.35;82.12;99784.09;5076466;28;45357;-63
2023/11/06 02:46:29;;;;;;;;;2.25;0.75;;;;;12.33;81.94;99780.59;5074788;27;49453;-63
2023/11/06 02:48:55;;;;;;;;;0.25;0.25;;;;;12.30;82.12;99778.13;5072574;27;45439;-63
2023/11/06 02:51:20;;;;;;;;;1.50;1.00;;;;;12.38;82.12;99794.63;5076109;28;73222;-63
2023/11/06 02:53:46;;;;;;;;;4.50;0.25;;;;;12.36;82.04;99781.31;5073575;28;58385;-63
2023/11/06 02:56:11;;;;;;;;;3.00;1.00;;;;;12.37;82.12;99777.69;5061256;28;45445;-63
2023/11/06 02:58:36;;;;;;;;;6.25;2.00;;;;;12.35;82.04;99778.72;5060895;28;48455;-63
2023/11/06 03:01:02;;;;;;;;;2.75;0.50;;;;;12.37;82.20;99779.50;5060727;28;60436;-63
2023/11/06 03:03:27;;;;;;;;;1.50;0.25;;;;;12.33;82.00;99776.13;5061331;28;45559;-63
2023/11/06 03:05:52;;;;;;;;;1.00;1.00;;;;;12.30;82.27;99778.13;5061126;28;45470;-63
2023/11/06 03:08:18;;;;;;;;;1.75;1.00;;;;;12.31;82.41;99779.81;5060280;28;57520;-63
2023/11/06 03:10:43;;;;;;;;;1.00;1.00;;;;;12.31;82.42;99775.38;5060919;28;45384;-63
2023/11/06 03:13:08;;;;;;;;;1.00;1.00;;;;;12.38;82.36;99783.91;5060514;28;59573;-63
2023/11/06 03:15:35;;;;;;;;;1.50;0.25;;;;;12.37;82.34;99791.06;5060888;28;45303;-63
2023/11/06 03:18:00;;;;;;;;;2.75;1.00;;;;;12.36;82.38;99794.69;5077469;28;46044;-63
2023/11/06 03:20:26;;;;;;;;;1.00;1.00;;;;;12.37;82.32;99795.56;5066577;27;45347;-63
2023/11/06 03:22:51;;;;;;;;;3.50;1.25;;;;;12.33;82.33;99791.31;5059974;28;69515;-63
2023/11/06 03:25:16;;;;;;;;;1.00;1.00;;;;;12.36;82.53;99794.69;5058956;28;73497;-63
2023/11/06 03:27:41;;;;;;;;;2.00;2.00;;;;;12.36;82.41;99800.06;5060663;28;51296;-63
2023/11/06 03:30:07;;;;;;;;;1.00;1.00;;;;;12.38;82.42;99798.16;5075812;28;51396;-63
2023/11/06 03:32:32;;;;;;;;;3.25;1.00;;;;;12.34;82.37;99791.22;5060915;28;45414;-63
2023/11/06 03:35:00;;;;;;;;;1.75;1.00;;;;;12.38;82.52;99805.31;5060582;28;45476;-63
2023/11/06 03:37:25;;;;;;;;;2.00;1.00;;;;;12.36;82.95;99800.06;5060285;28;46017;-63
2023/11/06 03:39:50;;;;;;;;;1.25;1.25;;;;;12.38;82.33;99805.31;5060574;28;45440;-63
2023/11/06 03:42:16;;;;;;;;;2.25;1.00;;;;;12.35;82.27;99800.13;5060566;28;48968;-63
2023/11/06 03:44:41;;;;;;;;;3.00;2.00;;;;;12.29;82.50;99784.41;5079319;28;45996;-63
2023/11/06 03:47:06;;;;;;;;;0.50;0.50;;;;;12.31;82.46;99799.44;5075138;28;45416;-63
2023/11/06 03:49:31;;;;;;;;;1.75;0.50;;;;;12.32;82.38;99784.25;5066056;28;65388;-63
2023/11/06 03:51:57;;;;;;;;;1.00;1.00;;;;;12.36;82.59;99796.50;5060092;28;45509;-63
2023/11/06 03:54:22;;;;;;;;;3.00;2.25;;;;;12.35;82.28;99794.78;5072748;28;45593;-63
2023/11/06 03:56:48;;;;;;;;;2.00;0.25;;;;;12.35;82.44;99794.78;5060889;27;47059;-63
2023/11/06 03:59:13;;;;;;;;;2.00;1.00;;;;;12.36;82.49;99805.41;5059638;28;62279;-63
2023/11/06 04:01:38;;;;;;;;;1.00;0.50;;;;;12.35;82.29;99798.31;5059685;28;58445;-63
2023/11/06 04:04:04;;;;;;;;;2.00;0.75;;;;;12.29;82.34;99792.44;5060252;28;45644;-63
2023/11/06 04:06:30;;;;;;;;;4.00;2.00;;;;;12.29;82.69;99797.78;5059864;28;45510;-63
2023/11/06 04:08:56;;;;;;;;;2.75;1.00;;;;;12.30;82.62;99800.38;5059989;28;45647;-63
2023/11/06 04:11:22;;;;;;;;;4.25;1.00;;;;;12.30;82.65;99805.72;5060168;28;45487;-63
2023/11/06 04:13:47;;;;;;;;;3.00;1.00;;;;;12.21;82.88;99790.16;5059979;28;45319;-63
2023/11/06 04:16:14;;;;;;;;;2.00;2.00;;;;;12.28;82.60;99802.28;5061654;28;47089;-63
2023/11/06 04:18:40;;;;;;;;;2.50;1.00;;;;;12.23;82.91;99802.53;5079947;27;45602;-63
2023/11/06 04:21:06;;;;;;;;;1.25;1.00;;;;;12.22;82.84;99797.25;5059148;28;45436;-63
2023/11/06 04:23:31;;;;;;;;;4.00;1.25;;;;;12.27;82.82;99816.59;5059768;28;45489;-63
2023/11/06 04:25:57;;;;;;;;;3.75;2.00;;;;;12.20;82.83;99808.03;5066316;28;45578;-63
2023/11/06 04:28:22;;;;;;;;;1.00;0.50;;;;;12.27;82.87;99818.41;5078896;28;45641;-63
2023/11/06 04:30:47;;;;;;;;;1.75;1.75;;;;;12.30;83.04;99831.63;5073268;27;45440;-63
2023/11/06 04:33:13;;;;;;;;;1.00;1.00;;;;;12.30;83.05;99828.97;5074384;28;63558;-63
2023/11/06 04:35:38;;;;;;;;;1.00;1.00;;;;;12.26;83.03;99814.00;5058771;28;75350;-63
2023/11/06 04:38:04;;;;;;;;;1.00;1.00;;;;;12.28;82.72;99817.44;5057992;28;50927;-63
2023/11/06 04:40:29;;;;;;;;;3.25;1.00;;;;;12.20;82.97;99823.25;5059924;28;45374;-63
2023/11/06 04:42:54;;;;;;;;;1.75;0.00;;;;;12.25;83.45;99839.06;5064760;28;46538;-63
2023/11/06 04:45:20;;;;;;;;;2.25;2.00;;;;;12.23;83.44;99837.31;5071963;27;69379;-63
2023/11/06 04:47:45;;;;;;;;;2.00;2.00;;;;;12.15;83.51;99850.22;5079067;28;45331;-63
2023/11/06 04:50:12;;;;;;;;;2.50;1.00;;;;;12.19;83.66;99842.91;5066686;28;45395;-63
2023/11/06 04:52:37;;;;;;;;;3.75;1.75;;;;;12.29;83.62;99859.34;5079679;27;45372;-63
2023/11/06 04:55:02;;;;;;;;;3.00;2.25;;;;;12.29;83.45;99851.31;5061461;27;45359;-63
2023/11/06 04:57:28;;;;;;;;;2.00;2.00;;;;;12.28;83.74;99855.81;5059376;28;45340;-63
2023/11/06 04:59:53;;;;;;;;;1.50;1.50;;;;;12.22;83.70;99843.59;5058934;28;49381;-63
2023/11/06 05:02:19;;;;;;;;;2.00;2.00;;;;;12.15;84.23;99834.19;5058511;28;67585;-63
2023/11/06 05:04:44;;;;;;;;;2.75;1.00;;;;;12.23;83.99;99841.81;5059218;28;46809;-63
2023/11/06 05:07:10;;;;;;;;;3.00;1.00;;;;;12.17;84.33;99840.31;5058961;28;45456;-63
2023/11/06 05:09:36;;;;;;;;;2.00;1.50;;;;;12.24;84.46;99843.53;5059252;28;45486;-63
2023/11/06 05:12:01;;;;;;;;;1.50;1.00;;;;;12.21;84.74;99847.25;5059429;28;45341;-63
2023/11/06 05:14:27;;;;;;;;;4.00;2.00;;;;;12.21;84.73;99838.31;5058600;28;50781;-63
2023/11/06 05:16:52;;;;;;;;;4.00;2.00;;;;;12.24;84.82;99843.53;5066279;28;45453;-63
2023/11/06 05:19:17;;;;;;;;;3.25;2.00;;;;;12.31;85.09;99857.44;5074397;27;45524;-63
2023/11/06 05:21:43;;;;;;;;;3.00;1.00;;;;;12.27;85.06;99851.38;5058633;28;54786;-63
2023/11/06 05:24:08;;;;;;;;;1.75;1.75;;;;;12.31;85.27;99850.28;5058632;28;46411;-63
2023/11/06 05:26:33;;;;;;;;;3.50;1.50;;;;;12.34;85.05;99858.13;5057781;28;45457;-63
2023/11/06 05:29:00;;;;;;;;;3.50;1.00;;;;;12.37;84.71;99851.75;5059072;28;45358;-63
2023/11/06 05:31:26;;;;;;;;;4.00;1.50;;;;;12.32;85.18;99843.13;5058880;28;45355;-63
2023/11/06 05:33:51;;;;;;;;;1.00;1.00;;;;;12.33;85.07;99840.38;5058540;28;46850;-63
2023/11/06 05:36:17;;;;;;;;;1.25;1.00;;;;;12.35;85.14;99846.47;5058946;28;45311;-63
2023/11/06 05:38:44;;;;;;;;;2.75;1.00;;;;;12.36;85.15;99840.19;5075980;28;45845;-63
2023/11/06 05:41:10;;;;;;;;;2.00;0.00;;;;;12.35;85.36;99834.94;5066992;28;45427;-63
2023/11/06 05:43:35;;;;;;;;;2.50;1.50;;;;;12.39;85.29;99841.81;5069361;28;45583;-63
2023/11/06 05:46:01;;;;;;;;;2.50;1.75;;;;;12.40;85.57;99840.91;5071997;28;45290;-63
2023/11/06 05:48:26;;;;;;;;;0.00;0.00;;;;;12.41;85.36;99847.94;5073748;28;65374;-63
2023/11/06 05:50:52;;;;;;;;;2.50;2.00;;;;;12.45;85.47;99856.72;5074685;28;45380;-63
2023/11/06 05:53:17;;;;;;;;;2.75;1.50;;;;;12.45;85.42;99856.72;5078698;27;46988;-63
2023/11/06 05:55:42;;;;;;;;;2.75;1.00;;;;;12.45;85.31;99856.72;5061472;28;68066;-63
2023/11/06 05:58:08;;;;;;;;;2.00;1.50;;;;;12.45;85.13;99862.91;5060915;28;45492;-63
2023/11/06 06:00:34;;;;;;;;;1.75;0.75;;;;;12.37;85.45;99851.75;5062150;28;45576;-63
2023/11/06 06:03:01;;;;;;;;;2.00;1.00;;;;;12.50;85.42;99871.56;5061970;28;45331;-63
2023/11/06 06:05:27;;;;;;;;;0.50;0.50;;;;;12.50;85.23;99863.53;5062220;28;45498;-63
2023/11/06 06:07:52;;;;;;;;;2.50;1.00;;;;;12.41;85.32;99847.94;5061744;28;45321;-63
2023/11/06 06:10:17;;;;;;;;;2.50;1.00;;;;;12.48;85.29;99864.53;5060406;28;54498;-63
2023/11/06 06:12:42;;;;;;;;;3.00;3.00;;;;;12.47;85.18;99860.16;5061560;28;52273;-63
2023/11/06 06:15:08;;;;;;;;;2.50;2.50;;;;;12.54;85.01;99882.97;5061419;28;55103;-63
2023/11/06 06:17:37;;;;;;;;;2.00;2.00;;;;;12.48;84.75;99869.91;5074902;28;45548;-63
2023/11/06 06:20:05;;;;;;;;;4.75;2.00;;;;;12.44;85.11;99866.53;5070712;27;45330;-63
2023/11/06 06:22:31;;;;;;;;;2.25;2.25;;;;;12.54;84.90;99886.50;5074877;28;46044;-63
2023/11/06 06:24:56;;;;;;;;;2.00;2.00;;;;;12.52;85.03;99884.88;5061824;28;45320;-63
2023/11/06 06:27:21;;;;;;;;;1.50;1.50;;;;;12.41;84.89;99870.25;5061826;28;45325;-63
2023/11/06 06:29:46;;;;;;;;;3.00;2.00;;;;;12.45;84.96;99878.13;5061800;28;45317;-63
2023/11/06 06:32:14;;;;;;;;;2.00;2.00;;;;;12.41;85.12;99880.06;5061337;28;45922;-63
2023/11/06 06:34:39;;;;;;;;;2.00;2.00;;;;;12.46;84.95;99888.72;5061720;28;45323;-63
2023/11/06 06:37:05;;;;;;;;;2.00;2.00;;;;;12.47;84.89;99892.28;5060275;28;68234;-63
2023/11/06 06:39:30;;;;;;;;;3.00;2.00;;;;;12.44;84.97;99890.63;5061621;28;45597;-63
2023/11/06 06:41:55;;;;;;;;;2.00;2.00;;;;;12.45;84.89;99889.69;5060518;28;69467;-63
2023/11/06 06:44:21;;;;;;;;;1.00;1.00;;;;;12.42;85.00;99890.69;5078709;28;45392;-63
2023/11/06 06:46:46;;;;;;;;;1.75;1.75;;;;;12.41;85.05;99886.31;5073505;28;69379;-63
2023/11/06 06:49:11;;;;;;;;;1.25;1.25;;;;;12.41;84.92;99880.97;5069681;27;45378;-63
2023/11/06 06:51:37;;;;;;;;;3.25;1.25;;;;;12.46;84.79;99890.53;5079944;28;46448;-63
2023/11/06 06:54:02;;;;;;;;;0.75;0.75;;;;;12.49;84.61;99895.72;5071798;28;45644;-63
2023/11/06 06:56:28;;;;;;;;;1.50;1.25;;;;;12.45;84.21;99889.69;5061297;28;45450;-63
2023/11/06 06:58:53;;;;;;;;;1.75;1.00;;;;;12.36;84.73;99872.31;5060793;28;48531;-63
2023/11/06 07:01:18;;;;;;;;;2.25;1.00;;;;;12.44;84.50;99884.41;5059410;28;67590;-63
2023/11/06 07:03:44;;;;;;;;;1.75;1.75;;;;;12.54;84.43;99902.56;5060788;28;54859;-63
2023/11/06 07:06:15;;;;;;;;;1.00;1.00;;;;;12.51;84.58;99900.06;5061036;28;45284;-64
2023/11/06 07:08:40;;;;;;;;;3.25;2.25;;;;;12.52;84.47;99912.50;5064424;28;45401;-63
2023/11/06 07:11:06;;;;;;;;;1.50;1.00;;;;;12.49;84.36;99907.28;5074005;27;46217;-63
2023/11/06 07:13:32;;;;;;;;;1.00;0.75;;;;;12.53;84.48;99914.22;5060455;28;60672;-64
2023/11/06 07:15:57;;;;;;;;;1.25;1.25;;;;;12.52;84.52;99923.19;5071117;28;45434;-63
2023/11/06 07:18:23;;;;;;;;;2.25;1.00;;;;;12.49;84.34;99927.84;5064690;28;61509;-64
2023/11/06 07:20:49;;;;;;;;;1.00;1.00;;;;;12.49;84.26;99922.50;5070485;28;46061;-64
2023/11/06 07:23:14;;;;;;;;;0.75;0.75;;;;;12.48;84.24;99921.66;5063831;27;45449;-64
2023/11/06 07:25:40;;;;;;;;;1.50;1.50;;;;;12.51;84.74;99926.84;5062431;28;45550;-64
2023/11/06 07:28:05;;;;;;;;;2.25;1.00;;;;;12.50;84.71;99933.13;5072910;27;45244;-64
2023/11/06 07:30:31;;;;;;;;;0.25;0.25;;;;;12.54;84.24;99936.50;5062832;28;46009;-64
2023/11/06 07:32:56;;;;;;;;;2.00;1.00;;;;;12.52;84.46;99930.38;5067119;28;45391;-63
2023/11/06 07:35:22;;;;;;;;;1.00;1.00;;;;;12.51;84.42;99918.81;5077278;27;45449;-64
2023/11/06 07:37:47;;;;;;;;;1.25;1.00;;;;;12.58;84.30;99938.09;5067335;28;45250;-63
2023/11/06 07:40:13;;;;;;;;;1.00;1.00;;;;;12.56;84.47;99935.50;5064256;27;56511;-63
2023/11/06 07:42:39;;;;;;;;;1.00;1.00;;;;;12.53;84.29;99935.66;5064919;28;45435;-63
2023/11/06 07:45:07;;;;;;;;;1.25;0.75;;;;;12.46;84.36;99934.22;5063967;27;45381;-63
2023/11/06 07:47:33;;;;;;;;;2.00;0.00;;;;;12.46;84.35;99933.38;5065033;27;45533;-63
2023/11/06 07:49:59;;;;;;;;;1.00;0.00;;;;;12.51;84.48;99955.41;5064193;27;45383;-63
2023/11/06 07:52:24;;;;;;;;;0.25;0.25;;;;;12.59;84.38;99961.22;5076375;28;68355;-63
2023/11/06 07:54:49;;;;;;;;;1.00;1.00;;;;;12.45;84.27;99948.56;5067956;28;45598;-63
2023/11/06 07:57:15;;;;;;;;;0.00;0.00;;;;;12.62;84.20;99982.47;5061601;28;49072;-63
2023/11/06 07:59:41;;;;;;;;;2.00;0.25;;;;;12.65;84.25;99981.47;5067060;28;45973;-63
2023/11/06 08:02:10;;;;;;;;;1.50;1.00;;;;;12.60;84.38;99979.88;5059984;28;45809;-64
2023/11/06 08:04:39;;;;;;;;;0.50;0.50;;;;;12.36;83.83;99944.56;5067202;28;45521;-63
2023/11/06 08:07:04;;;;;;;;;0.00;0.00;;;;;12.54;83.71;99993.56;5068805;27;45570;-65
2023/11/06 08:09:30;;;;;;;;;0.00;0.00;;;;;12.54;83.61;99998.06;5069788;27;46428;-64
2023/11/06 08:11:55;;;;;;;;;0.50;0.50;;;;;12.62;83.82;100005.72;5078224;27;45381;-63
2023/11/06 08:14:20;;;;;;;;;1.75;1.00;;;;;12.59;83.67;99999.56;5061701;28;65568;-63
2023/11/06 08:16:47;;;;;;;;;1.00;0.75;;;;;12.56;83.84;100010.44;5069179;27;45314;-64
2023/11/06 08:19:12;;;;;;;;;0.00;0.00;;;;;12.50;83.56;100000.06;5067499;27;45526;-63
2023/11/06 08:21:38;;;;;;;;;2.00;1.00;;;;;12.57;83.77;100003.28;5067693;27;45447;-64
2023/11/06 08:24:03;;;;;;;;;1.00;1.00;;;;;12.53;83.93;99991.88;5076871;27;45415;-64
2023/11/06 08:26:29;;;;;;;;;1.25;1.00;;;;;12.53;83.87;100001.69;5066094;27;45815;-63
2023/11/06 08:28:54;;;;;;;;;3.00;2.00;;;;;12.66;83.60;100017.97;5064535;27;61477;-64
2023/11/06 08:31:20;;;;;;;;;1.00;1.00;;;;;12.65;83.27;100018.94;5072478;27;45447;-64
2023/11/06 08:33:45;;;;;;;;;0.00;0.00;;;;;12.53;82.98;100005.25;5080825;27;45528;-63
2023/11/06 08:36:11;;;;;;;;;0.00;0.00;;;;;12.57;82.98;100017.50;5070122;27;65000;-63
2023/11/06 08:38:36;;;;;;;;;0.50;0.50;;;;;12.49;82.95;100006.34;5073988;27;46723;-63
2023/11/06 08:41:07;;;;;;;;;1.50;0.50;;;;;12.54;82.81;100028.38;5070153;27;64199;-63
2023/11/06 08:43:32;;;;;;;;;0.00;0.00;;;;;12.60;82.94;100025.38;5061993;28;45366;-63
2023/11/06 08:46:00;;;;;;;;;0.00;0.00;;;;;12.66;82.89;100026.88;5071029;27;45589;-63
2023/11/06 08:48:25;;;;;;;;;1.75;0.00;;;;;12.69;82.79;100029.38;5066745;27;46403;-63
2023/11/06 08:50:52;;;;;;;;;1.75;0.00;;;;;12.61;82.69;100015.53;5069290;27;58597;-63
2023/11/06 08:53:17;;;;;;;;;0.75;0.00;;;;;12.64;82.56;100022.56;5065140;27;45528;-63
2023/11/06 08:55:43;;;;;;;;;1.00;1.00;;;;;12.63;82.61;100024.38;5059557;27;56385;-63
2023/11/06 08:58:15;;;;;;;;;0.75;0.75;;;;;12.67;82.32;100033.97;5073267;27;46013;-63
2023/11/06 09:00:40;;;;;;;;;1.00;1.00;;;;;12.63;82.41;100021.69;5070894;27;45730;-63
2023/11/06 09:03:08;;;;;;;;;0.00;0.00;;;;;12.65;82.52;100033.19;5073653;27;45428;-63
2023/11/06 09:05:33;;;;;;;;;3.75;0.50;;;;;12.69;82.35;100040.09;5062042;28;45473;-62
2023/11/06 09:07:59;;;;;;;;;0.00;0.00;;;;;12.69;82.19;100037.41;5067323;27;58630;-63
2023/11/06 09:10:24;;;;;;;;;0.00;0.00;;;;;12.72;82.17;100028.38;5073578;28;45540;-62
2023/11/06 09:12:49;;;;;;;;;2.25;0.00;;;;;12.73;82.05;100032.78;5070028;27;45634;-62
2023/11/06 09:15:15;;;;;;;;;0.00;0.00;;;;;12.72;82.06;100033.72;5063424;27;45235;-61
2023/11/06 09:17:40;;;;;;;;;0.50;0.00;;;;;12.75;82.50;100037.09;5071905;27;46447;-62
2023/11/06 09:20:09;;;;;;;;;0.00;0.00;;;;;12.77;82.41;100047.75;5066745;27;61036;-63
2023/11/06 09:22:34;;;;;;;;;3.00;3.00;;;;;12.83;82.34;100049.22;5067126;27;45462;-62
2023/11/06 09:25:01;;;;;;;;;1.00;1.00;;;;;12.83;82.16;100042.06;5062150;27;45430;-62
2023/11/06 09:27:26;;;;;;;;;1.00;0.00;;;;;12.85;82.05;100042.84;5068346;27;46264;-63
2023/11/06 09:29:51;;;;;;;;;0.00;0.00;;;;;12.95;82.15;100056.63;5072234;28;45487;-63
2023/11/06 09:32:18;;;;;;;;;1.00;0.00;;;;;12.97;81.58;100060.09;5070807;27;45366;-63
2023/11/06 09:34:43;;;;;;;;;0.00;0.00;;;;;12.98;81.70;100059.16;5072061;27;45375;-63
2023/11/06 09:37:09;;;;;;;;;1.75;0.00;;;;;12.96;81.77;100045.84;5071657;27;47319;-63
2023/11/06 09:39:35;;;;;;;;;0.00;0.00;;;;;13.05;81.62;100062.38;5064845;27;45482;-63
2023/11/06 09:42:02;;;;;;;;;0.75;0.00;;;;;13.06;81.61;100070.28;5073376;27;45351;-63
2023/11/06 09:44:28;;;;;;;;;0.00;0.00;;;;;13.00;81.51;100045.63;5066869;28;45555;-63
2023/11/06 09:46:55;;;;;;;;;0.00;0.00;;;;;13.15;81.37;100074.31;5064458;27;46187;-63
2023/11/06 09:49:26;;;;;;;;;1.25;0.00;;;;;13.08;81.22;100063.06;5072803;28;45730;-63
2023/11/06 09:51:52;;;;;;;;;1.00;1.00;;;;;13.16;81.20;100076.03;5069600;27;45434;-63
2023/11/06 09:54:20;;;;;;;;;0.00;0.00;;;;;13.24;81.04;100081.00;5065699;28;45319;-63
2023/11/06 09:56:46;;;;;;;;;1.50;0.00;;;;;13.21;81.05;100073.09;5064529;27;45740;-63
2023/11/06 09:59:12;;;;;;;;;3.00;0.00;;;;;13.27;80.93;100087.03;5071878;28;45399;-63
2023/11/06 10:01:37;;;;;;;;;1.25;0.25;;;;;13.31;80.77;100085.94;5069592;27;45449;-63
2023/11/06 10:04:04;;;;;;;;;0.50;0.50;;;;;13.28;80.75;100082.53;5070960;27;45607;-63
2023/11/06 10:06:31;;;;;;;;;0.00;0.00;;;;;13.38;80.82;100105.28;5070327;27;45634;-63
2023/11/06 10:08:57;;;;;;;;;1.25;0.25;;;;;13.40;80.00;100102.47;5072291;27;45330;-63
2023/11/06 10:11:23;;;;;;;;;1.25;0.00;;;;;13.40;80.48;100102.47;5064092;27;45651;-63
2023/11/06 10:13:54;;;;;;;;;0.00;0.00;;;;;13.42;80.12;100098.78;5063025;28;45519;-69
2023/11/06 10:16:24;;;;;;;;;1.50;0.00;;;;;13.47;80.01;100106.59;5071117;27;45667;-67
2023/11/06 10:19:10;;;;;;;;;2.00;0.75;;;;;13.49;79.71;100108.22;5076249;27;45283;-67
2023/11/06 10:21:35;;;;;;;;;1.00;0.00;;;;;13.43;80.04;100107.69;5076590;27;45401;-67
2023/11/06 10:24:02;;;;;;;;;1.00;0.00;;;;;13.49;79.46;100112.72;5064702;28;45804;-66
2023/11/06 10:26:31;;;;;;;;;0.00;0.00;;;;;13.46;79.44;100102.16;5068541;27;45486;-65
2023/11/06 10:29:16;;;;;;;;;0.00;0.00;;;;;13.55;79.81;100112.41;5064753;28;45701;-66
2023/11/06 10:31:46;;;;;;;;;1.25;0.00;;;;;13.56;79.49;100118.63;5067435;27;45322;-66
2023/11/06 10:34:28;;;;;;;;;0.00;0.00;;;;;13.51;78.87;100103.66;5068728;28;45677;-64
2023/11/06 10:37:13;;;;;;;;;2.00;0.00;;;;;13.55;79.15;100112.41;5080264;27;45410;-64
2023/11/06 10:39:40;;;;;;;;;0.00;0.00;;;;;13.62;78.91;100112.91;5074340;28;45630;-64
2023/11/06 10:42:09;;;;;;;;;1.00;0.00;;;;;13.61;79.24;100122.75;5079220;27;45430;-64
2023/11/06 10:44:36;;;;;;;;;0.00;0.00;;;;;13.63;78.77;100110.16;5077215;28;45991;-64
2023/11/06 10:47:07;;;;;;;;;1.00;0.00;;;;;13.70;78.89;100129.47;5081296;27;47039;-63
2023/11/06 10:49:42;;;;;;;;;0.00;0.00;;;;;13.67;78.96;100125.13;5070806;27;45417;-63
2023/11/06 10:52:08;;;;;;;;;2.00;1.00;;;;;13.77;79.15;100127.31;5072885;27;45449;-63
2023/11/06 10:54:36;;;;;;;;;1.00;1.00;;;;;13.77;79.75;100112.06;5073859;27;45508;-63
2023/11/06 10:57:02;;;;;;;;;5.00;1.25;;;;;13.86;79.37;100121.41;5066823;27;45378;-63
2023/11/06 10:59:33;;;;;;;;;2.00;1.00;;;;;13.88;78.55;100130.22;5064081;28;45542;-63
2023/11/06 11:01:58;;;;;;;;;2.25;0.00;;;;;13.87;78.27;100129.38;5063648;28;45481;-63
2023/11/06 11:04:26;;;;;;;;;1.00;1.00;;;;;13.86;78.58;100122.25;5060309;28;49085;-63
2023/11/06 11:06:52;;;;;;;;;2.50;0.00;;;;;13.90;78.92;100120.31;5066234;28;47959;-63
2023/11/06 11:09:18;;;;;;;;;0.00;0.00;;;;;13.94;78.60;100118.31;5073553;27;45886;-63
2023/11/06 11:11:44;;;;;;;;;0.00;0.00;;;;;13.96;78.26;100121.75;5064695;28;45574;-63
2023/11/06 11:14:13;;;;;;;;;0.00;0.00;;;;;13.97;78.16;100123.50;5060727;28;45482;-63
2023/11/06 11:16:41;;;;;;;;;0.00;0.00;;;;;13.98;77.95;100117.16;5067448;28;45389;-63
2023/11/06 11:19:31;;;;;;;;;0.00;0.00;;;;;14.01;78.23;100125.06;5071471;27;45697;-63
2023/11/06 11:22:12;;;;;;;;;1.75;0.00;;;;;14.05;77.79;100124.81;5072311;27;45508;-63
2023/11/06 11:24:45;;;;;;;;;2.00;0.00;;;;;14.10;77.45;100129.91;5074589;28;45407;-63
2023/11/06 11:27:13;;;;;;;;;2.00;0.50;;;;;14.12;77.54;100127.13;5064815;27;46609;-63